Time;durP1;ratioP1;P1;durP2;ratioP2;P2;SDS_P1;SDS_P2;PMS_P1;PMS_P2;Temp;Humidity;BMP_temperature;BMP_pressure;BME280_temperature;BME280_humidity;BME280_pressure;Samples;Min_cycle;Max_cycle;Signal;HPM_P1;HPM_P2
2023/03/21 00:02:02;;;;;;;80.10;24.52;;;9.30;99.90;;;;;;5112348;28;20123;-70
2023/03/21 00:04:28;;;;;;;91.15;25.83;;;9.30;99.90;;;;;;5095601;28;20047;-70
2023/03/21 00:06:54;;;;;;;77.05;24.40;;;9.30;99.90;;;;;;5112222;28;20406;-69
2023/03/21 00:09:20;;;;;;;87.57;25.33;;;9.30;99.90;;;;;;5096727;28;20048;-70
2023/03/21 00:11:47;;;;;;;72.22;24.95;;;9.30;99.90;;;;;;5096294;28;20445;-70
2023/03/21 00:14:17;;;;;;;80.18;24.70;;;9.40;99.90;;;;;;5096210;28;20084;-71
2023/03/21 00:16:44;;;;;;;82.95;24.70;;;9.30;99.90;;;;;;5094762;28;20056;-70
2023/03/21 00:19:10;;;;;;;73.53;23.42;;;9.40;99.90;;;;;;5096172;28;20044;-70
2023/03/21 00:21:37;;;;;;;74.93;24.03;;;9.30;99.90;;;;;;5096789;28;20194;-70
2023/03/21 00:24:04;;;;;;;67.20;23.63;;;9.30;99.90;;;;;;5095096;28;20295;-70
2023/03/21 00:26:30;;;;;;;;;;;9.40;99.90;;;;;;5095564;28;20046;-70
2023/03/21 00:28:56;;;;;;;74.65;22.63;;;9.40;99.90;;;;;;5096025;28;19920;-71
2023/03/21 00:31:22;;;;;;;71.38;23.42;;;9.30;99.90;;;;;;5061183;28;20055;-71
2023/03/21 00:33:47;;;;;;;68.35;22.77;;;9.40;99.90;;;;;;5096222;28;20048;-71
2023/03/21 00:36:14;;;;;;;66.45;23.10;;;9.40;99.90;;;;;;5095691;28;20040;-73
2023/03/21 00:38:40;;;;;;;67.05;22.52;;;9.40;99.90;;;;;;5095215;28;20054;-71
2023/03/21 00:41:09;;;;;;;62.00;21.35;;;9.40;99.90;;;;;;5095768;28;20040;-70
2023/03/21 00:43:36;;;;;;;71.97;21.45;;;9.40;99.90;;;;;;5094219;28;20075;-71
2023/03/21 00:46:02;;;;;;;70.13;21.88;;;9.40;99.90;;;;;;5096246;28;20127;-71
2023/03/21 00:48:28;;;;;;;61.00;20.05;;;9.40;99.90;;;;;;5094476;28;20044;-71
2023/03/21 00:50:56;;;;;;;58.40;19.45;;;9.40;99.90;;;;;;5095178;28;20044;-70
2023/03/21 00:53:22;;;;;;;69.10;21.23;;;9.40;99.90;;;;;;5094386;28;20044;-71
2023/03/21 00:55:48;;;;;;;62.75;19.75;;;9.50;99.90;;;;;;5095527;28;20044;-72
2023/03/21 00:58:15;;;;;;;70.28;19.52;;;9.40;99.90;;;;;;5092997;28;20048;-70
2023/03/21 01:00:41;;;;;;;67.40;20.40;;;9.40;99.90;;;;;;5095454;28;20063;-70
2023/03/21 01:03:10;;;;;;;65.35;19.73;;;9.40;99.90;;;;;;5094898;28;20044;-70
2023/03/21 01:06:05;;;;;;;70.07;20.40;;;9.40;99.90;;;;;;5095413;28;20499;-70
2023/03/21 01:08:36;;;;;;;71.97;20.00;;;9.50;99.90;;;;;;5096006;28;20055;-71
2023/03/21 01:11:09;;;;;;;60.35;18.33;;;9.50;99.90;;;;;;5094952;28;20132;-71
2023/03/21 01:13:35;;;;;;;61.83;17.30;;;9.40;99.90;;;;;;5095514;28;20040;-70
2023/03/21 01:16:02;;;;;;;64.45;18.75;;;9.50;99.90;;;;;;5095038;28;20438;-70
2023/03/21 01:18:29;;;;;;;;;;;9.40;99.90;;;;;;5115296;28;20405;-69
2023/03/21 01:20:57;;;;;;;64.65;19.42;;;9.50;99.90;;;;;;5115358;28;19987;-70
2023/03/21 01:23:24;;;;;;;52.85;16.77;;;9.50;99.90;;;;;;5115331;28;20090;-70
2023/03/21 01:25:52;;;;;;;51.88;16.40;;;9.40;99.90;;;;;;5115950;28;20071;-70
2023/03/21 01:28:17;;;;;;;45.15;16.20;;;9.50;99.90;;;;;;5115291;28;20200;-71
2023/03/21 01:30:48;;;;;;;51.72;16.27;;;9.40;99.90;;;;;;5115292;28;20083;-69
2023/03/21 01:33:15;;;;;;;49.58;16.08;;;9.40;99.90;;;;;;5116022;28;20050;-70
2023/03/21 01:35:41;;;;;;;49.47;16.05;;;9.40;99.90;;;;;;5116060;28;20377;-70
2023/03/21 01:38:08;;;;;;;45.25;16.58;;;9.50;99.90;;;;;;5097106;28;20051;-70
2023/03/21 01:40:35;;;;;;;48.95;15.65;;;9.40;99.90;;;;;;5115052;28;20130;-70
2023/03/21 01:43:01;;;;;;;54.42;15.85;;;9.40;99.90;;;;;;5096725;28;20079;-70
2023/03/21 01:46:04;;;;;;;44.88;15.55;;;9.40;99.90;;;;;;5114969;28;20076;-70
2023/03/21 01:48:31;;;;;;;50.15;17.00;;;9.40;99.90;;;;;;5114779;28;20052;-70
2023/03/21 01:50:58;;;;;;;56.30;17.35;;;9.50;99.90;;;;;;5115296;28;20400;-70
2023/03/21 01:53:28;;;;;;;48.78;16.13;;;9.40;99.90;;;;;;5115048;28;20052;-69
2023/03/21 01:56:02;;;;;;;57.30;18.42;;;9.50;99.90;;;;;;5114429;28;20495;-70
2023/03/21 01:58:29;;;;;;;48.40;15.57;;;9.50;99.90;;;;;;5114447;28;20047;-71
2023/03/21 02:00:55;;;;;;;49.17;16.95;;;9.40;99.90;;;;;;5096725;28;20079;-71
2023/03/21 02:03:22;;;;;;;46.10;16.30;;;9.40;99.90;;;;;;5096398;28;20140;-70
2023/03/21 02:05:54;;;;;;;49.13;17.33;;;9.40;99.90;;;;;;5097387;28;20052;-71
2023/03/21 02:08:22;;;;;;;50.67;17.38;;;9.40;99.90;;;;;;5114115;28;20083;-70
2023/03/21 02:10:49;;;;;;;51.65;16.73;;;9.40;99.90;;;;;;5096421;28;20108;-70
2023/03/21 02:13:15;;;;;;;53.28;18.67;;;9.40;99.90;;;;;;5114351;28;20047;-71
2023/03/21 02:15:51;;;;;;;44.95;15.73;;;9.40;99.90;;;;;;5096401;28;20104;-70
2023/03/21 02:18:24;;;;;;;55.97;17.63;;;9.40;99.90;;;;;;5114935;28;20124;-71
2023/03/21 02:21:14;;;;;;;52.45;16.88;;;9.40;99.90;;;;;;5115136;28;20047;-70
2023/03/21 02:24:06;;;;;;;51.95;15.52;;;9.30;99.90;;;;;;5113861;28;20491;-70
2023/03/21 02:26:44;;;;;;;52.67;16.70;;;9.40;99.90;;;;;;5096008;28;20077;-70
2023/03/21 02:29:29;;;;;;;54.13;16.67;;;9.40;99.90;;;;;;5114113;28;20043;-71
2023/03/21 02:32:03;;;;;;;60.17;18.60;;;9.40;99.90;;;;;;5114176;28;20064;-71
2023/03/21 02:34:47;;;;;;;52.85;15.85;;;9.40;99.90;;;;;;5114469;28;20387;-70
2023/03/21 02:37:25;;;;;;;55.20;16.52;;;9.40;99.90;;;;;;5113878;28;20058;-70
2023/03/21 02:40:08;;;;;;;54.38;16.25;;;9.30;99.90;;;;;;5114422;28;20104;-70
2023/03/21 02:42:51;;;;;;;60.10;17.33;;;9.40;99.90;;;;;;5114016;28;20096;-72
2023/03/21 02:45:20;;;;;;;45.70;15.48;;;9.30;99.90;;;;;;5114728;28;20043;-71
2023/03/21 02:47:52;;;;;;;53.67;15.90;;;9.30;99.90;;;;;;5095827;28;20411;-70
2023/03/21 02:50:50;;;;;;;51.13;16.25;;;9.30;99.90;;;;;;5096812;28;20052;-70
2023/03/21 02:53:19;;;;;;;45.88;14.93;;;9.30;99.90;;;;;;5097667;28;20052;-70
2023/03/21 02:55:46;;;;;;;49.40;15.10;;;9.30;99.90;;;;;;5114156;28;20450;-69
2023/03/21 02:58:19;;;;;;;45.33;14.57;;;9.30;99.90;;;;;;5095317;28;20506;-69
2023/03/21 03:00:47;;;;;;;43.72;15.30;;;9.30;99.90;;;;;;5096804;28;20479;-70
2023/03/21 03:03:14;;;;;;;40.17;14.82;;;9.30;99.90;;;;;;5114220;28;20032;-71
2023/03/21 03:05:46;;;;;;;41.60;14.70;;;9.30;99.90;;;;;;5113473;28;20050;-70
2023/03/21 03:08:38;;;;;;;44.47;14.93;;;9.40;99.90;;;;;;5113842;28;20047;-70
2023/03/21 03:11:18;;;;;;;43.88;14.88;;;9.30;99.90;;;;;;5114066;28;20392;-70
2023/03/21 03:14:02;;;;;;;45.30;14.93;;;9.30;99.90;;;;;;5095941;28;20448;-70
2023/03/21 03:16:52;;;;;;;42.88;15.32;;;9.30;99.90;;;;;;5113472;28;20108;-70
2023/03/21 03:19:29;;;;;;;38.65;13.48;;;9.30;99.90;;;;;;5114230;28;20101;-72
2023/03/21 03:21:58;;;;;;;39.53;13.63;;;9.30;99.90;;;;;;5117161;28;20154;-71
2023/03/21 03:24:28;;;;;;;39.55;14.32;;;9.30;99.90;;;;;;5117321;28;20499;-70
2023/03/21 03:27:16;;;;;;;47.03;14.77;;;9.40;99.90;;;;;;5099653;28;20104;-70
2023/03/21 03:29:45;;;;;;;40.28;14.02;;;9.30;99.90;;;;;;5099723;28;20076;-69
2023/03/21 03:32:29;;;;;;;42.28;14.80;;;9.30;99.90;;;;;;5099505;28;20047;-71
2023/03/21 03:34:55;;;;;;;42.85;13.77;;;9.30;99.90;;;;;;5118353;28;20059;-71
2023/03/21 03:37:27;;;;;;;48.03;14.80;;;9.30;99.90;;;;;;5117645;28;20391;-71
2023/03/21 03:40:04;;;;;;;35.70;13.82;;;9.30;99.90;;;;;;5117769;28;20052;-71
2023/03/21 03:42:51;;;;;;;41.80;14.05;;;9.30;99.90;;;;;;5117867;28;20036;-71
2023/03/21 03:45:18;;;;;;;36.40;13.85;;;9.30;99.90;;;;;;5117914;28;20054;-70
2023/03/21 03:48:01;;;;;;;36.90;14.05;;;9.30;99.90;;;;;;5117284;28;20051;-70
2023/03/21 03:50:46;;;;;;;37.28;13.32;;;9.30;99.90;;;;;;5117451;28;20072;-71
2023/03/21 03:53:18;;;;;;;34.58;13.45;;;9.30;99.90;;;;;;5117107;28;20054;-71
2023/03/21 03:55:44;;;;;;;45.30;14.55;;;9.30;99.90;;;;;;5117164;28;20044;-71
2023/03/21 03:58:11;;;;;;;40.37;14.33;;;9.30;99.90;;;;;;5117062;28;20075;-71
2023/03/21 04:00:38;;;;;;;48.35;15.55;;;9.30;99.90;;;;;;5098987;28;20832;-71
2023/03/21 04:03:06;;;;;;;42.00;14.68;;;9.30;99.90;;;;;;5116828;28;20039;-70
2023/03/21 04:05:32;;;;;;;40.80;14.20;;;9.30;99.90;;;;;;5082221;28;20100;-71
2023/03/21 04:07:57;;;;;;;46.15;14.68;;;9.30;99.90;;;;;;5116986;28;20042;-70
2023/03/21 04:10:23;;;;;;;40.45;13.73;;;9.30;99.90;;;;;;5115776;28;20550;-71
2023/03/21 04:12:49;;;;;;;47.50;15.40;;;9.30;99.90;;;;;;5099257;28;20047;-70
2023/03/21 04:15:15;;;;;;;46.75;15.00;;;9.30;99.90;;;;;;5116623;28;20169;-71
2023/03/21 04:17:40;;;;;;;41.33;14.98;;;9.30;99.90;;;;;;5116820;28;20060;-71
2023/03/21 04:20:07;;;;;;;41.95;15.07;;;9.30;99.90;;;;;;5116855;28;20056;-71
2023/03/21 04:22:33;;;;;;;42.10;14.88;;;9.30;99.90;;;;;;5117018;28;20388;-70
2023/03/21 04:25:04;;;;;;;50.65;16.48;;;9.40;99.90;;;;;;5115602;28;20050;-71
2023/03/21 04:27:31;;;;;;;49.30;16.85;;;9.30;99.90;;;;;;5098777;28;20093;-70
2023/03/21 04:29:57;;;;;;;51.42;17.33;;;9.30;99.90;;;;;;5082405;28;20047;-70
2023/03/21 04:32:25;;;;;;;44.35;17.23;;;9.30;99.90;;;;;;5116106;28;20083;-71
2023/03/21 04:34:53;;;;;;;53.42;18.20;;;9.30;99.90;;;;;;5081234;28;20487;-69
2023/03/21 04:37:22;;;;;;;52.42;18.52;;;9.30;99.90;;;;;;5115956;28;20514;-71
2023/03/21 04:39:49;;;;;;;53.55;19.20;;;9.30;99.90;;;;;;5099148;28;20051;-71
2023/03/21 04:42:17;;;;;;;55.58;19.17;;;9.30;99.90;;;;;;5098435;28;20047;-71
2023/03/21 04:44:44;;;;;;;53.38;20.70;;;9.30;99.90;;;;;;5081751;28;20054;-71
2023/03/21 04:47:12;;;;;;;;;;;9.30;99.90;;;;;;5118597;28;20043;-71
2023/03/21 04:49:38;;;;;;;56.17;19.27;;;9.30;99.90;;;;;;5118490;28;19927;-71
2023/03/21 04:52:04;;;;;;;59.33;22.80;;;9.30;99.90;;;;;;5099470;28;20052;-71
2023/03/21 04:54:31;;;;;;;55.58;20.15;;;9.30;99.90;;;;;;5117977;28;20074;-71
2023/03/21 04:56:57;;;;;;;62.13;20.83;;;9.30;99.90;;;;;;5100149;28;20047;-72
2023/03/21 04:59:24;;;;;;;63.85;21.73;;;9.30;99.90;;;;;;5117135;28;20180;-72
2023/03/21 05:01:50;;;;;;;62.35;21.80;;;9.30;99.90;;;;;;5116173;28;20139;-70
2023/03/21 05:04:16;;;;;;;63.47;21.77;;;9.30;99.90;;;;;;5116454;28;20043;-72
2023/03/21 05:06:43;;;;;;;63.05;21.92;;;9.30;99.90;;;;;;5116026;28;20062;-72
2023/03/21 05:09:10;;;;;;;60.65;21.73;;;9.30;99.90;;;;;;5097580;28;20043;-71
2023/03/21 05:11:37;;;;;;;65.85;21.70;;;9.30;99.90;;;;;;5115811;28;20052;-72
2023/03/21 05:14:04;;;;;;;62.20;21.50;;;9.30;99.90;;;;;;5115340;28;20487;-71
2023/03/21 05:16:30;;;;;;;61.88;21.92;;;9.30;99.90;;;;;;5115232;28;20055;-70
2023/03/21 05:18:58;;;;;;;61.55;21.85;;;9.20;99.90;;;;;;5115209;28;20052;-72
2023/03/21 05:21:28;;;;;;;63.78;21.88;;;9.30;99.90;;;;;;5115637;28;20391;-71
2023/03/21 05:23:57;;;;;;;64.05;22.23;;;9.30;99.90;;;;;;5115819;28;20050;-69
2023/03/21 05:26:23;;;;;;;65.53;22.13;;;9.30;99.90;;;;;;5115280;28;20050;-71
2023/03/21 05:28:49;;;;;;;67.93;23.38;;;9.20;99.90;;;;;;5080152;28;20459;-71
2023/03/21 05:31:16;;;;;;;64.32;21.75;;;9.20;99.90;;;;;;5115369;28;20039;-72
2023/03/21 05:33:43;;;;;;;61.45;22.08;;;9.20;99.90;;;;;;5097129;28;20043;-72
2023/03/21 05:36:09;;;;;;;;;;;9.20;99.90;;;;;;5116145;28;20051;-72
2023/03/21 05:38:34;;;;;;;66.03;22.45;;;9.20;99.90;;;;;;5115150;28;20014;-73
2023/03/21 05:41:00;;;;;;;61.28;22.00;;;9.20;99.90;;;;;;5113867;28;20046;-72
2023/03/21 05:43:26;;;;;;;69.72;21.85;;;9.20;99.90;;;;;;5113864;28;20502;-71
2023/03/21 05:45:52;;;;;;;63.25;22.85;;;9.20;99.90;;;;;;5096857;28;20043;-72
2023/03/21 05:48:18;;;;;;;61.97;21.30;;;9.20;99.90;;;;;;5096705;28;20047;-72
2023/03/21 05:50:43;;;;;;;66.97;22.52;;;9.20;99.90;;;;;;5115014;28;20388;-71
2023/03/21 05:53:09;;;;;;;64.93;20.95;;;9.20;99.90;;;;;;5096690;28;20384;-71
2023/03/21 05:55:35;;;;;;;60.80;21.83;;;9.20;99.90;;;;;;5114689;28;20052;-71
2023/03/21 05:58:01;;;;;;;66.10;21.75;;;9.20;99.90;;;;;;5114757;28;20053;-72
2023/03/21 06:00:27;;;;;;;64.40;22.30;;;9.20;99.90;;;;;;5097296;28;20043;-72
2023/03/21 06:02:53;;;;;;;62.70;21.30;;;9.20;99.90;;;;;;5095863;28;20040;-71
2023/03/21 06:05:19;;;;;;;69.43;21.67;;;9.20;99.90;;;;;;5113365;28;20043;-72
2023/03/21 06:07:45;;;;;;;59.40;18.88;;;9.20;99.90;;;;;;5096544;28;20373;-73
2023/03/21 06:10:10;;;;;;;52.55;18.80;;;9.20;99.90;;;;;;5114683;28;20064;-71
2023/03/21 06:12:36;;;;;;;55.60;18.75;;;9.20;99.90;;;;;;5114094;28;20043;-71
2023/03/21 06:15:04;;;;;;;46.03;16.42;;;9.30;99.90;;;;;;5115096;28;20079;-72
2023/03/21 06:17:31;;;;;;;51.92;18.13;;;9.30;99.90;;;;;;5114774;28;20074;-71
2023/03/21 06:19:57;;;;;;;50.40;18.35;;;9.30;99.90;;;;;;5115251;28;20054;-71
2023/03/21 06:22:23;;;;;;;46.70;16.80;;;9.30;99.90;;;;;;5114235;28;20043;-73
2023/03/21 06:24:48;;;;;;;41.22;15.80;;;9.30;99.90;;;;;;5114748;28;20220;-72
2023/03/21 06:27:14;;;;;;;40.55;15.10;;;9.30;99.90;;;;;;5114155;28;20044;-73
2023/03/21 06:29:40;;;;;;;46.05;15.38;;;9.30;99.90;;;;;;5114378;28;20039;-72
2023/03/21 06:32:06;;;;;;;43.38;14.70;;;9.30;99.90;;;;;;5096060;28;20050;-71
2023/03/21 06:34:32;;;;;;;37.00;14.68;;;9.30;99.90;;;;;;5096042;28;20131;-72
2023/03/21 06:36:58;;;;;;;41.80;13.97;;;9.30;99.90;;;;;;5095973;28;20042;-71
2023/03/21 06:39:24;;;;;;;39.90;14.27;;;9.40;99.90;;;;;;5114005;28;20040;-73
2023/03/21 06:41:50;;;;;;;36.27;13.70;;;9.30;99.90;;;;;;5114644;28;20379;-72
2023/03/21 06:44:16;;;;;;;40.33;13.23;;;9.40;99.90;;;;;;5113979;28;20047;-72
2023/03/21 06:46:41;;;;;;;37.67;13.82;;;9.40;99.90;;;;;;5113727;28;20052;-72
2023/03/21 06:49:07;;;;;;;36.33;14.32;;;9.30;99.90;;;;;;5113629;28;20086;-72
2023/03/21 06:51:33;;;;;;;36.08;13.65;;;9.40;99.90;;;;;;5112934;28;20086;-71
2023/03/21 06:53:59;;;;;;;36.10;13.80;;;9.40;99.90;;;;;;5113927;28;20051;-71
2023/03/21 06:56:25;;;;;;;36.08;14.13;;;9.40;99.90;;;;;;5100223;28;20047;-72
2023/03/21 06:58:51;;;;;;;40.45;14.48;;;9.40;99.90;;;;;;5118125;28;20365;-71
2023/03/21 07:01:16;;;;;;;39.88;14.73;;;9.40;99.90;;;;;;5099910;28;20112;-72
2023/03/21 07:03:42;;;;;;;38.75;14.48;;;9.50;99.90;;;;;;5117998;28;20384;-72
2023/03/21 07:06:12;;;;;;;36.42;13.40;;;9.40;99.90;;;;;;5119173;28;20070;-72
2023/03/21 07:08:40;;;;;;;36.63;14.27;;;9.40;99.90;;;;;;5118779;28;20130;-72
2023/03/21 07:11:05;;;;;;;;;;;9.40;99.90;;;;;;5100313;28;20126;-70
2023/03/21 07:13:32;;;;;;;43.47;16.23;;;9.40;99.90;;;;;;5117950;28;20015;-71
2023/03/21 07:15:58;;;;;;;46.10;17.70;;;9.40;99.90;;;;;;5118155;28;20084;-71
2023/03/21 07:18:24;;;;;;;46.33;17.05;;;9.30;99.90;;;;;;5082458;28;20051;-72
2023/03/21 07:20:50;;;;;;;40.88;15.18;;;9.30;99.90;;;;;;5099175;28;20518;-72
2023/03/21 07:23:18;;;;;;;49.67;16.80;;;9.30;99.90;;;;;;5099784;28;20486;-71
2023/03/21 07:25:44;;;;;;;43.28;17.05;;;9.30;99.90;;;;;;5118066;28;20130;-73
2023/03/21 07:28:09;;;;;;;53.22;17.52;;;9.30;99.90;;;;;;5099679;28;20048;-71
2023/03/21 07:30:35;;;;;;;43.17;16.25;;;9.20;99.90;;;;;;5117536;28;20043;-71
2023/03/21 07:33:01;;;;;;;43.90;15.85;;;9.20;99.90;;;;;;5118034;28;20048;-72
2023/03/21 07:35:27;;;;;;;43.03;16.05;;;9.30;99.90;;;;;;5117500;28;20508;-72
2023/03/21 07:37:53;;;;;;;46.20;17.92;;;9.30;99.90;;;;;;5117869;28;20487;-73
2023/03/21 07:40:18;;;;;;;42.83;16.98;;;9.30;99.90;;;;;;5099271;28;20465;-72
2023/03/21 07:42:44;;;;;;;47.22;17.40;;;9.30;99.90;;;;;;5098980;28;20035;-72
2023/03/21 07:45:14;;;;;;;44.92;16.25;;;9.30;99.90;;;;;;5099154;28;20089;-72
2023/03/21 07:47:40;;;;;;;41.25;16.83;;;9.30;99.90;;;;;;5098741;28;20044;-73
2023/03/21 07:50:06;;;;;;;44.40;16.85;;;9.30;99.90;;;;;;5098990;28;20055;-70
2023/03/21 07:52:32;;;;;;;42.75;15.98;;;9.40;99.90;;;;;;5117190;28;20044;-72
2023/03/21 07:54:57;;;;;;;39.60;15.80;;;9.40;99.90;;;;;;5117105;28;20039;-72
2023/03/21 07:57:23;;;;;;;43.80;16.08;;;9.40;99.90;;;;;;5099845;28;20052;-71
2023/03/21 07:59:49;;;;;;;38.83;15.95;;;9.40;99.90;;;;;;5082761;28;20055;-71
2023/03/21 08:02:16;;;;;;;41.37;16.30;;;9.40;99.90;;;;;;5117007;28;20368;-72
2023/03/21 08:04:42;;;;;;;41.72;15.15;;;9.40;99.90;;;;;;5117487;28;20613;-72
2023/03/21 08:07:09;;;;;;;49.47;16.43;;;9.50;99.90;;;;;;5115872;28;20499;-73
2023/03/21 08:09:35;;;;;;;46.53;16.23;;;9.50;99.90;;;;;;5116917;28;20047;-72
2023/03/21 08:12:01;;;;;;;47.42;17.15;;;9.50;99.90;;;;;;5099131;28;20079;-73
2023/03/21 08:14:27;;;;;;;42.42;15.70;;;9.50;99.90;;;;;;5116783;28;20050;-71
2023/03/21 08:16:53;;;;;;;42.75;16.90;;;9.50;99.90;;;;;;5116305;28;20130;-72
2023/03/21 08:19:20;;;;;;;43.90;17.67;;;9.60;99.90;;;;;;5117305;28;20055;-71
2023/03/21 08:21:49;;;;;;;37.85;15.43;;;9.60;99.90;;;;;;5116518;28;20047;-72
2023/03/21 08:24:15;;;;;;;41.47;16.15;;;9.60;99.90;;;;;;5117399;28;20047;-71
2023/03/21 08:26:43;;;;;;;40.55;15.55;;;9.70;99.90;;;;;;5115772;28;20086;-71
2023/03/21 08:29:08;;;;;;;;;;;9.70;99.90;;;;;;5098900;28;20052;-72
2023/03/21 08:31:35;;;;;;;40.40;14.97;;;9.80;99.90;;;;;;5116450;28;19925;-72
2023/03/21 08:34:01;;;;;;;36.73;15.77;;;9.70;99.90;;;;;;5098410;28;20128;-71
2023/03/21 08:36:26;;;;;;;38.72;16.10;;;9.70;99.90;;;;;;5115369;28;20073;-71
2023/03/21 08:38:55;;;;;;;39.17;14.35;;;9.70;99.90;;;;;;5116187;28;20495;-71
2023/03/21 08:41:24;;;;;;;47.35;15.65;;;9.70;99.90;;;;;;5098322;28;20051;-72
2023/03/21 08:43:50;;;;;;;43.53;15.27;;;9.70;99.90;;;;;;5116093;28;20039;-73
2023/03/21 08:46:16;;;;;;;37.03;14.25;;;9.70;99.90;;;;;;5116179;28;20448;-73
2023/03/21 08:48:42;;;;;;;32.60;14.93;;;9.70;99.90;;;;;;5116091;28;20130;-71
2023/03/21 08:51:08;;;;;;;41.50;14.70;;;9.70;99.90;;;;;;5115617;28;20484;-71
2023/03/21 08:53:33;;;;;;;38.05;15.25;;;9.70;99.90;;;;;;5115894;28;20047;-72
2023/03/21 08:55:59;;;;;;;36.40;13.43;;;9.70;99.90;;;;;;5116957;28;20047;-72
2023/03/21 08:58:25;;;;;;;39.58;14.13;;;9.70;99.90;;;;;;5115856;28;20479;-71
2023/03/21 09:00:51;;;;;;;37.20;13.57;;;9.70;99.90;;;;;;5115806;28;20036;-72
2023/03/21 09:03:16;;;;;;;35.97;13.07;;;9.80;99.90;;;;;;5115743;28;20123;-72
2023/03/21 09:05:44;;;;;;;42.80;15.38;;;9.80;99.90;;;;;;5116508;28;20130;-72
2023/03/21 09:08:11;;;;;;;38.55;14.63;;;9.80;99.90;;;;;;5097602;28;20130;-72
2023/03/21 09:10:38;;;;;;;39.63;13.68;;;9.80;99.90;;;;;;5115751;28;20043;-71
2023/03/21 09:13:04;;;;;;;36.43;14.60;;;9.90;99.90;;;;;;5115618;28;20079;-72
2023/03/21 09:15:30;;;;;;;39.35;14.30;;;9.90;99.90;;;;;;5097098;28;20788;-72
2023/03/21 09:18:11;;;;;;;43.10;14.30;;;9.90;99.90;;;;;;5114681;28;20047;-72
2023/03/21 09:20:38;;;;;;;39.78;14.20;;;10.00;99.90;;;;;;5115223;28;20495;-73
2023/03/21 09:23:04;;;;;;;39.83;13.55;;;10.10;99.90;;;;;;5115276;28;20083;-72
2023/03/21 09:25:31;;;;;;;34.88;13.93;;;10.00;99.90;;;;;;5097784;28;20420;-72
2023/03/21 09:27:57;;;;;;;;;;;10.10;99.90;;;;;;5115720;28;20445;-72
2023/03/21 09:30:24;;;;;;;38.20;13.98;;;10.10;99.90;;;;;;5097379;28;19975;-72
2023/03/21 09:32:51;;;;;;;36.42;13.23;;;10.00;99.90;;;;;;5115956;28;20104;-74
2023/03/21 09:35:17;;;;;;;;;;;10.10;99.90;;;;;;5080808;28;20506;-71
2023/03/21 09:37:44;;;;;;;31.75;13.05;;;10.10;99.90;;;;;;5115224;28;19926;-73
2023/03/21 09:40:18;;;;;;;34.65;14.88;;;10.20;99.90;;;;;;5115061;28;20050;-72
2023/03/21 09:43:22;;;;;;;29.15;13.57;;;10.20;99.90;;;;;;5097658;28;20044;-72
2023/03/21 09:46:01;;;;;;;32.78;14.52;;;10.20;99.90;;;;;;5115590;28;20052;-72
2023/03/21 09:48:56;;;;;;;33.53;13.73;;;10.20;99.90;;;;;;5114997;28;20562;-73
2023/03/21 09:51:30;;;;;;;31.65;13.23;;;10.20;99.90;;;;;;5114764;28;20047;-73
2023/03/21 09:54:01;;;;;;;33.45;13.60;;;10.30;99.90;;;;;;5097703;28;20061;-73
2023/03/21 09:56:27;;;;;;;34.70;14.57;;;10.20;99.90;;;;;;5096868;28;20048;-72
2023/03/21 09:58:58;;;;;;;33.70;12.70;;;10.20;99.90;;;;;;5096716;28;20574;-72
2023/03/21 10:01:28;;;;;;;35.83;13.80;;;10.20;99.90;;;;;;5096625;28;20048;-73
2023/03/21 10:04:06;;;;;;;31.20;13.05;;;10.20;99.90;;;;;;5096733;28;20126;-73
2023/03/21 10:06:38;;;;;;;29.52;12.32;;;10.30;99.90;;;;;;5096466;28;20112;-73
2023/03/21 10:09:23;;;;;;;25.65;11.98;;;10.20;99.90;;;;;;5114274;28;20039;-72
2023/03/21 10:12:06;;;;;;;31.80;13.23;;;10.30;99.90;;;;;;5114564;28;20134;-73
2023/03/21 10:14:44;;;;;;;32.10;13.30;;;10.30;99.90;;;;;;5114520;28;20083;-72
2023/03/21 10:17:16;;;;;;;30.38;13.05;;;10.40;99.90;;;;;;5114606;28;20463;-72
2023/03/21 10:19:45;;;;;;;31.35;12.18;;;10.50;99.90;;;;;;5096990;28;20058;-71
2023/03/21 10:22:11;;;;;;;31.92;13.05;;;10.60;99.90;;;;;;5116880;28;20127;-71
2023/03/21 10:24:36;;;;;;;33.45;13.23;;;10.70;99.90;;;;;;5116870;28;20067;-72
2023/03/21 10:27:04;;;;;;;33.95;13.55;;;10.70;99.90;;;;;;5116050;28;20051;-72
2023/03/21 10:29:43;;;;;;;30.55;12.80;;;10.70;99.90;;;;;;5115473;28;20047;-72
2023/03/21 10:32:16;;;;;;;30.38;13.15;;;10.70;99.90;;;;;;5098060;28;20083;-74
2023/03/21 10:34:51;;;;;;;31.60;11.70;;;10.60;99.90;;;;;;5116433;28;20078;-73
2023/03/21 10:37:17;;;;;;;27.13;11.40;;;10.60;99.90;;;;;;5116655;28;20392;-74
2023/03/21 10:39:47;;;;;;;31.30;12.60;;;10.70;99.90;;;;;;5096663;28;20075;-73
2023/03/21 10:42:39;;;;;;;30.15;11.48;;;10.70;99.90;;;;;;5113921;28;20040;-73
2023/03/21 10:45:17;;;;;;;31.30;12.80;;;10.70;99.90;;;;;;5092758;28;20452;-73
2023/03/21 10:47:47;;;;;;;29.83;12.73;;;10.80;99.90;;;;;;5096587;28;20050;-74
2023/03/21 10:50:16;;;;;;;38.33;14.27;;;10.80;99.90;;;;;;5114181;28;20381;-73
2023/03/21 10:52:59;;;;;;;29.30;12.60;;;10.90;99.90;;;;;;5095850;28;20046;-73
2023/03/21 10:55:33;;;;;;;29.45;12.85;;;11.10;99.90;;;;;;5113917;28;20040;-74
2023/03/21 10:58:07;;;;;;;28.30;12.30;;;11.20;99.90;;;;;;5114804;28;20052;-74
2023/03/21 11:00:40;;;;;;;31.23;12.80;;;11.20;99.90;;;;;;5114176;28;20119;-74
2023/03/21 11:03:19;;;;;;;32.58;13.52;;;11.40;99.90;;;;;;5114410;28;20090;-74
2023/03/21 11:05:45;;;;;;;31.70;13.10;;;11.50;99.90;;;;;;5114216;28;20042;-74
2023/03/21 11:08:12;;;;;;;30.50;12.07;;;11.50;99.90;;;;;;5114486;28;20047;-73
2023/03/21 11:10:49;;;;;;;29.17;10.27;;;11.60;99.90;;;;;;5113901;28;20043;-73
2023/03/21 11:13:26;;;;;;;23.83;10.15;;;11.70;99.90;;;;;;5114311;28;20044;-73
2023/03/21 11:15:55;;;;;;;25.88;10.38;;;11.80;99.90;;;;;;5114698;28;20134;-73
2023/03/21 11:18:29;;;;;;;47.42;11.23;;;11.80;99.90;;;;;;5113979;28;20085;-75
2023/03/21 11:21:01;;;;;;;26.48;9.70;;;11.90;99.90;;;;;;5114384;28;20044;-72
2023/03/21 11:23:30;;;;;;;21.27;9.45;;;12.00;99.90;;;;;;5114142;28;20043;-72
2023/03/21 11:25:59;;;;;;;20.58;8.20;;;12.20;99.90;;;;;;5096690;28;20192;-73
2023/03/21 11:28:32;;;;;;;21.63;9.63;;;12.20;99.90;;;;;;5113957;28;20440;-73
2023/03/21 11:31:00;;;;;;;20.85;9.20;;;12.10;99.90;;;;;;5095650;28;20066;-73
2023/03/21 11:33:32;;;;;;;21.42;8.60;;;12.30;99.90;;;;;;5113904;28;20069;-72
2023/03/21 11:36:37;;;;;;;16.95;8.63;;;12.30;99.90;;;;;;5113922;28;20387;-73
2023/03/21 11:39:38;;;;;;;16.42;7.65;;;12.10;99.90;;;;;;5078877;28;20056;-73
2023/03/21 11:42:05;;;;;;;22.55;7.85;;;12.40;99.90;;;;;;5115150;28;20059;-73
2023/03/21 11:44:42;;;;;;;15.10;7.45;;;12.30;99.90;;;;;;5099908;28;20131;-73
2023/03/21 11:47:09;;;;;;;18.13;7.43;;;12.10;99.90;;;;;;5118210;28;20043;-73
2023/03/21 11:49:35;;;;;;;17.45;7.03;;;12.30;99.90;;;;;;5117173;28;20040;-73
2023/03/21 11:52:01;;;;;;;14.52;6.95;;;12.30;99.90;;;;;;5099189;28;20051;-72
2023/03/21 11:54:34;;;;;;;21.40;7.93;;;12.40;99.90;;;;;;5116965;28;20051;-72
2023/03/21 11:57:08;;;;;;;13.98;6.60;;;12.50;99.90;;;;;;5117317;28;20475;-73
2023/03/21 11:59:36;;;;;;;15.70;6.47;;;12.60;99.90;;;;;;5117025;28;20050;-73
2023/03/21 12:02:25;;;;;;;17.90;7.82;;;12.60;99.90;;;;;;5116884;28;20075;-74
2023/03/21 12:05:20;;;;;;;18.23;7.43;;;12.70;99.90;;;;;;5099315;28;20430;-72
2023/03/21 12:08:13;;;;;;;19.58;7.63;;;12.80;99.90;;;;;;5117000;28;20051;-72
2023/03/21 12:10:42;;;;;;;20.58;6.57;;;12.70;99.90;;;;;;5098795;28;20398;-72
2023/03/21 12:13:28;;;;;;;23.33;7.20;;;12.80;99.90;;;;;;5116719;28;20115;-74
2023/03/21 12:15:57;;;;;;;24.30;7.72;;;13.00;99.90;;;;;;5116683;28;20043;-73
2023/03/21 12:18:32;;;;;;;30.30;9.20;;;13.10;99.90;;;;;;5116427;28;20150;-74
2023/03/21 12:21:05;;;;;;;17.77;6.55;;;13.00;99.90;;;;;;5099278;28;20048;-72
2023/03/21 12:23:42;;;;;;;13.45;5.95;;;13.00;99.90;;;;;;5099154;28;20122;-72
2023/03/21 12:26:27;;;;;;;16.75;6.38;;;13.00;99.90;;;;;;5081719;28;20403;-73
2023/03/21 12:29:28;;;;;;;14.05;6.13;;;13.00;99.90;;;;;;5098417;28;20047;-72
2023/03/21 12:31:54;;;;;;;13.82;5.97;;;12.90;99.90;;;;;;5117180;28;20062;-73
2023/03/21 12:34:42;;;;;;;16.17;6.93;;;12.70;99.90;;;;;;5099009;28;20044;-71
2023/03/21 12:37:36;;;;;;;14.25;6.10;;;12.50;99.90;;;;;;5081560;28;20180;-72
2023/03/21 12:40:32;;;;;;;15.23;6.25;;;12.40;99.90;;;;;;5117013;28;20039;-73
2023/03/21 12:43:26;;;;;;;14.25;6.22;;;12.30;99.90;;;;;;5116035;28;20607;-73
2023/03/21 12:45:58;;;;;;;20.73;7.10;;;12.20;99.90;;;;;;5115916;28;20526;-72
2023/03/21 12:48:29;;;;;;;18.08;6.65;;;12.10;99.90;;;;;;5116051;28;20042;-75
2023/03/21 12:50:56;;;;;;;17.10;6.53;;;12.10;99.90;;;;;;5116850;28;20380;-73
2023/03/21 12:53:41;;;;;;;19.20;7.18;;;12.20;99.90;;;;;;5097569;28;20047;-73
2023/03/21 12:56:12;;;;;;;17.77;6.78;;;12.40;99.90;;;;;;5116131;28;20108;-74